Time;durP1;ratioP1;P1;durP2;ratioP2;P2;SDS_P1;SDS_P2;PMS_P1;PMS_P2;Temp;Humidity;BMP_temperature;BMP_pressure;BME280_temperature;BME280_humidity;BME280_pressure;Samples;Min_cycle;Max_cycle;Signal;HPM_P1;HPM_P2
2022/07/03 00:02:00;;;;;;;10.82;7.32;;;23.50;99.90;;;;;;4896835;29;20080;-75
2022/07/03 00:04:28;;;;;;;15.88;8.27;;;23.50;99.90;;;;;;4896439;29;20044;-75
2022/07/03 00:06:56;;;;;;;12.68;8.45;;;23.40;99.90;;;;;;4879642;29;20578;-75
2022/07/03 00:09:23;;;;;;;12.93;7.80;;;23.40;99.90;;;;;;4879547;29;20469;-75
2022/07/03 00:11:51;;;;;;;19.23;8.00;;;23.30;99.90;;;;;;4863793;29;20096;-75
2022/07/03 00:14:19;;;;;;;17.42;8.25;;;23.30;99.90;;;;;;4895784;29;20428;-75
2022/07/03 00:16:47;;;;;;;15.75;9.48;;;23.30;99.90;;;;;;4896597;29;20076;-75
2022/07/03 00:19:14;;;;;;;12.15;8.38;;;23.20;99.90;;;;;;4896473;29;20073;-75
2022/07/03 00:21:51;;;;;;;15.43;7.93;;;23.10;99.90;;;;;;4896921;29;20056;-75
2022/07/03 00:24:24;;;;;;;13.20;8.40;;;23.10;99.90;;;;;;4896390;29;20087;-74
2022/07/03 00:26:54;;;;;;;13.60;8.05;;;23.10;99.90;;;;;;4896499;29;20498;-73
2022/07/03 00:29:23;;;;;;;16.65;8.93;;;23.00;99.90;;;;;;4879901;29;20116;-76
2022/07/03 00:31:52;;;;;;;20.15;8.77;;;23.00;99.90;;;;;;4879229;29;20550;-77
2022/07/03 00:34:20;;;;;;;14.85;8.77;;;22.90;99.90;;;;;;4895972;29;20053;-74
2022/07/03 00:36:48;;;;;;;17.65;8.55;;;22.80;99.90;;;;;;4878869;29;20446;-74
2022/07/03 00:39:16;;;;;;;22.30;9.63;;;22.80;99.90;;;;;;4879258;29;20642;-74
2022/07/03 00:41:45;;;;;;;13.25;9.23;;;22.80;99.90;;;;;;4863992;29;20449;-74
2022/07/03 00:44:13;;;;;;;18.48;9.77;;;22.80;99.90;;;;;;4896215;29;20052;-74
2022/07/03 00:46:41;;;;;;;13.95;9.18;;;22.70;99.90;;;;;;4896353;29;20045;-74
2022/07/03 00:49:11;;;;;;;12.40;8.70;;;22.70;99.90;;;;;;4895848;29;20061;-73
2022/07/03 00:51:41;;;;;;;17.50;9.63;;;22.60;99.90;;;;;;4879882;29;20052;-74
2022/07/03 00:54:10;;;;;;;14.57;9.30;;;22.60;99.90;;;;;;4863997;29;20063;-74
2022/07/03 00:56:39;;;;;;;19.38;9.00;;;22.60;99.90;;;;;;4879517;29;20497;-74
2022/07/03 00:59:07;;;;;;;15.80;9.13;;;22.50;99.90;;;;;;4896036;29;20441;-74
2022/07/03 01:01:37;;;;;;;13.98;9.13;;;22.50;99.90;;;;;;4895927;29;20466;-74
2022/07/03 01:04:18;;;;;;;21.25;9.27;;;22.50;99.90;;;;;;4896213;29;20432;-74
2022/07/03 01:06:53;;;;;;;13.35;8.65;;;22.50;99.90;;;;;;4896005;29;20124;-74
2022/07/03 01:09:30;;;;;;;18.42;9.07;;;22.40;99.90;;;;;;4895406;29;20057;-74
2022/07/03 01:12:04;;;;;;;19.08;9.10;;;22.40;99.90;;;;;;4879314;29;20044;-74
2022/07/03 01:14:43;;;;;;;14.30;8.35;;;22.40;99.90;;;;;;4895897;29;20147;-74
2022/07/03 01:17:21;;;;;;;19.25;9.43;;;22.40;99.90;;;;;;4895951;29;20060;-74
2022/07/03 01:19:53;;;;;;;14.23;9.00;;;22.40;99.90;;;;;;4895629;29;20084;-74
2022/07/03 01:22:43;;;;;;;18.10;9.23;;;22.40;99.90;;;;;;4864091;29;20060;-74
2022/07/03 01:25:24;;;;;;;15.70;8.93;;;22.40;99.90;;;;;;4873856;29;20064;-75
2022/07/03 01:28:12;;;;;;;14.60;8.77;;;22.50;99.90;;;;;;4878508;29;20059;-75
2022/07/03 01:30:41;;;;;;;17.92;9.70;;;22.60;99.90;;;;;;4895128;29;20052;-74
2022/07/03 01:33:12;;;;;;;14.77;8.90;;;22.60;99.90;;;;;;4895677;29;20048;-75
2022/07/03 01:35:42;;;;;;;13.50;8.88;;;22.60;99.90;;;;;;4878711;29;20044;-75
2022/07/03 01:38:11;;;;;;;18.88;9.90;;;22.70;99.90;;;;;;4895485;29;20525;-75
2022/07/03 01:40:40;;;;;;;18.65;9.38;;;22.70;99.90;;;;;;4895311;29;20049;-75
2022/07/03 01:43:10;;;;;;;17.73;8.45;;;22.70;99.90;;;;;;4895624;29;20433;-74
2022/07/03 01:45:42;;;;;;;13.10;8.20;;;22.70;99.90;;;;;;4878656;29;20060;-75
2022/07/03 01:48:12;;;;;;;15.73;7.95;;;22.80;99.90;;;;;;4878351;29;20080;-74
2022/07/03 01:50:41;;;;;;;14.07;8.23;;;22.80;99.90;;;;;;4878614;29;20067;-75
2022/07/03 01:53:12;;;;;;;15.57;8.95;;;22.80;99.90;;;;;;4895025;29;20746;-75
2022/07/03 01:55:42;;;;;;;12.20;8.48;;;22.80;99.90;;;;;;4878611;29;20147;-75
2022/07/03 01:58:11;;;;;;;14.80;9.07;;;22.80;99.90;;;;;;4895023;29;20077;-75
2022/07/03 02:00:46;;;;;;;14.70;9.07;;;22.80;99.90;;;;;;4895105;29;20052;-75
2022/07/03 02:03:22;;;;;;;15.25;8.45;;;22.80;99.90;;;;;;4878329;29;20116;-74
2022/07/03 02:05:52;;;;;;;10.85;8.00;;;22.80;99.90;;;;;;4895003;29;20104;-74
2022/07/03 02:08:38;;;;;;;15.00;9.45;;;22.90;99.90;;;;;;4878374;29;20604;-75
2022/07/03 02:11:15;;;;;;;19.95;9.07;;;22.90;99.90;;;;;;4862737;29;20076;-75
2022/07/03 02:13:53;;;;;;;13.18;8.65;;;22.90;99.90;;;;;;4895193;29;20139;-76
2022/07/03 02:16:51;;;;;;;15.13;9.70;;;22.90;99.90;;;;;;4881203;29;20049;-75
2022/07/03 02:19:20;;;;;;;17.10;9.50;;;22.90;99.90;;;;;;4878336;29;20059;-74
2022/07/03 02:21:50;;;;;;;14.35;9.63;;;22.90;99.90;;;;;;4895337;29;20146;-74
2022/07/03 02:24:20;;;;;;;19.02;9.82;;;23.00;99.90;;;;;;4895080;29;20048;-74
2022/07/03 02:26:54;;;;;;;15.68;8.98;;;23.00;99.90;;;;;;4895357;29;20057;-74
2022/07/03 02:29:31;;;;;;;25.83;10.02;;;23.00;99.90;;;;;;4878422;29;20064;-75
2022/07/03 02:32:03;;;;;;;17.58;9.88;;;23.00;99.90;;;;;;4895314;29;20289;-74
2022/07/03 02:34:33;;;;;;;13.63;9.52;;;23.00;99.90;;;;;;4894627;29;20135;-74
2022/07/03 02:37:10;;;;;;;27.13;10.98;;;23.00;99.90;;;;;;4864833;29;20056;-74
2022/07/03 02:39:45;;;;;;;19.35;9.95;;;23.00;99.90;;;;;;4881832;29;20048;-74
2022/07/03 02:42:22;;;;;;;21.33;10.23;;;23.00;99.90;;;;;;4898605;29;20537;-74
2022/07/03 02:44:53;;;;;;;20.23;10.73;;;23.10;99.90;;;;;;4881938;29;20060;-74
2022/07/03 02:47:28;;;;;;;17.77;10.45;;;23.10;99.90;;;;;;4898969;29;20084;-75
2022/07/03 02:50:04;;;;;;;18.83;9.82;;;23.10;99.90;;;;;;4866348;29;20151;-76
2022/07/03 02:52:55;;;;;;;20.50;12.13;;;23.10;99.90;;;;;;4881894;29;20056;-75
2022/07/03 02:55:40;;;;;;;15.10;10.20;;;23.10;99.90;;;;;;4898479;29;20392;-76
2022/07/03 02:58:28;;;;;;;21.90;11.80;;;23.20;99.90;;;;;;4865409;29;20513;-77
2022/07/03 03:01:03;;;;;;;26.83;10.40;;;23.20;99.90;;;;;;4863547;29;20155;-76
2022/07/03 03:03:32;;;;;;;25.88;11.63;;;23.30;99.90;;;;;;4865415;29;20056;-75
2022/07/03 03:06:03;;;;;;;26.75;11.70;;;23.30;99.90;;;;;;4897558;29;20128;-76
2022/07/03 03:08:37;;;;;;;28.65;12.13;;;23.40;99.90;;;;;;4880881;29;20048;-75
2022/07/03 03:11:08;;;;;;;28.98;12.85;;;23.40;99.90;;;;;;4897728;29;20052;-76
2022/07/03 03:13:36;;;;;;;21.50;11.68;;;23.50;99.90;;;;;;4897402;29;20059;-76
2022/07/03 03:16:08;;;;;;;18.73;11.63;;;23.50;99.90;;;;;;4880942;29;20131;-75
2022/07/03 03:18:37;;;;;;;18.27;11.55;;;23.60;99.90;;;;;;4897840;29;20052;-75
2022/07/03 03:21:09;;;;;;;22.25;11.48;;;23.60;99.90;;;;;;4897464;29;20057;-76
2022/07/03 03:23:48;;;;;;;17.48;11.48;;;23.60;99.90;;;;;;4880288;29;20048;-75
2022/07/03 03:26:17;;;;;;;19.98;11.07;;;23.60;99.90;;;;;;4897491;29;20059;-76
2022/07/03 03:28:45;;;;;;;21.25;10.90;;;23.70;99.90;;;;;;4880472;29;20291;-76
2022/07/03 03:31:14;;;;;;;22.90;11.85;;;23.70;99.90;;;;;;4896976;29;20060;-75
2022/07/03 03:33:42;;;;;;;21.65;11.15;;;23.70;99.90;;;;;;4897282;29;20108;-75
2022/07/03 03:36:11;;;;;;;23.67;11.82;;;23.70;99.90;;;;;;4897629;29;20412;-75
2022/07/03 03:38:40;;;;;;;22.73;11.95;;;23.80;99.90;;;;;;4897129;29;20426;-76
2022/07/03 03:41:09;;;;;;;20.50;11.73;;;23.80;99.90;;;;;;4880513;29;20067;-75
2022/07/03 03:43:37;;;;;;;18.58;11.43;;;23.90;99.90;;;;;;4880652;29;20150;-75
2022/07/03 03:46:05;;;;;;;22.85;11.63;;;23.90;99.90;;;;;;4880301;29;20068;-76
2022/07/03 03:48:34;;;;;;;24.13;11.70;;;23.90;99.90;;;;;;4879545;29;20513;-75
2022/07/03 03:51:03;;;;;;;20.08;12.45;;;24.00;99.90;;;;;;4896876;29;20054;-76
2022/07/03 03:53:30;;;;;;;25.42;12.48;;;24.00;99.90;;;;;;4896675;29;20044;-76
2022/07/03 03:56:02;;;;;;;22.20;12.85;;;24.00;99.90;;;;;;4896617;29;20067;-76
2022/07/03 03:58:30;;;;;;;23.00;13.83;;;24.10;99.90;;;;;;4896378;29;20057;-75
2022/07/03 04:00:58;;;;;;;21.40;12.65;;;24.20;99.90;;;;;;4896274;29;20052;-75
2022/07/03 04:03:25;;;;;;;24.83;13.55;;;24.30;99.90;;;;;;4896463;29;20049;-75
2022/07/03 04:05:55;;;;;;;19.15;12.52;;;24.30;99.90;;;;;;4863845;29;20060;-75
2022/07/03 04:08:24;;;;;;;25.40;13.07;;;24.20;99.90;;;;;;4879264;29;20080;-75
2022/07/03 04:10:51;;;;;;;22.42;11.93;;;24.20;99.90;;;;;;4879018;29;20057;-75
2022/07/03 04:13:19;;;;;;;22.10;12.98;;;24.20;99.90;;;;;;4896314;29;20044;-75
2022/07/03 04:15:47;;;;;;;18.05;12.90;;;24.30;99.90;;;;;;4896145;29;20458;-75
2022/07/03 04:18:14;;;;;;;27.38;12.65;;;24.40;99.90;;;;;;4879223;29;20156;-75
2022/07/03 04:20:42;;;;;;;26.48;12.57;;;24.40;99.90;;;;;;4896432;29;20083;-75
2022/07/03 04:23:11;;;;;;;26.90;15.25;;;24.50;99.90;;;;;;4895914;29;20053;-75
2022/07/03 04:25:38;;;;;;;27.58;12.30;;;24.60;99.90;;;;;;4879233;29;20429;-76
2022/07/03 04:28:06;;;;;;;23.90;12.25;;;24.70;99.90;;;;;;4896005;29;20513;-74
2022/07/03 04:30:33;;;;;;;18.48;12.25;;;24.70;99.90;;;;;;4895861;29;20056;-74
2022/07/03 04:33:00;;;;;;;28.95;14.50;;;24.80;99.90;;;;;;4895834;29;20052;-74
2022/07/03 04:35:27;;;;;;;28.30;13.38;;;24.80;99.90;;;;;;4879227;29;20172;-74
2022/07/03 04:37:55;;;;;;;22.52;13.25;;;24.90;99.90;;;;;;4878996;29;20474;-75
2022/07/03 04:40:24;;;;;;;29.77;14.45;;;24.90;99.90;;;;;;4895724;29;20076;-75
2022/07/03 04:42:51;;;;;;;26.20;13.23;;;24.90;99.90;;;;;;4895442;29;20654;-74
2022/07/03 04:45:19;;;;;;;25.90;13.93;;;25.00;99.90;;;;;;4895344;29;20056;-74
2022/07/03 04:47:46;;;;;;;27.42;13.70;;;25.10;99.90;;;;;;4878605;29;20139;-75
2022/07/03 04:50:13;;;;;;;26.02;13.80;;;25.30;99.90;;;;;;4878977;29;20162;-76
2022/07/03 04:52:41;;;;;;;27.35;14.05;;;25.40;99.90;;;;;;4895697;29;20048;-75
2022/07/03 04:55:10;;;;;;;24.33;13.32;;;25.50;99.90;;;;;;4878687;29;20108;-75
2022/07/03 04:57:39;;;;;;;26.15;14.32;;;25.70;99.90;;;;;;4895387;29;20049;-75
2022/07/03 05:00:08;;;;;;;24.38;13.90;;;25.70;99.90;;;;;;4895287;29;20079;-75
2022/07/03 05:02:35;;;;;;;26.92;13.80;;;25.80;99.90;;;;;;4878643;29;20056;-74
2022/07/03 05:05:03;;;;;;;25.83;14.80;;;25.80;99.90;;;;;;4895313;29;20088;-74
2022/07/03 05:07:30;;;;;;;19.10;13.40;;;25.90;99.90;;;;;;4878815;29;20080;-74
2022/07/03 05:09:58;;;;;;;29.58;16.13;;;26.10;99.90;;;;;;4878228;29;20071;-74
2022/07/03 05:12:25;;;;;;;23.30;14.15;;;26.10;99.90;;;;;;4878187;29;20053;-75
2022/07/03 05:14:54;;;;;;;22.10;13.95;;;26.20;99.90;;;;;;4878243;29;20053;-75
2022/07/03 05:17:21;;;;;;;26.45;15.27;;;26.20;99.90;;;;;;4878668;29;20076;-75
2022/07/03 05:20:23;;;;;;;22.77;13.73;;;26.30;99.90;;;;;;4894695;29;20580;-75
2022/07/03 05:22:36;;;;;;;27.02;15.43;;;26.30;99.90;;;;;;4894812;29;20053;-75
2022/07/03 05:25:03;;;;;;;27.60;15.43;;;26.50;99.90;;;;;;4862463;29;20470;-75
2022/07/03 05:27:30;;;;;;;30.10;15.25;;;26.60;99.90;;;;;;4894573;29;20052;-75
2022/07/03 05:29:59;;;;;;;35.90;19.45;;;26.80;99.90;;;;;;4877816;29;20081;-75
2022/07/03 05:32:26;;;;;;;32.35;16.10;;;26.90;99.90;;;;;;4894855;29;20056;-75
2022/07/03 05:34:54;;;;;;;27.23;15.95;;;27.00;99.90;;;;;;4862886;29;20480;-75
2022/07/03 05:37:21;;;;;;;24.25;15.18;;;27.20;99.90;;;;;;4894737;29;20282;-75
2022/07/03 05:39:48;;;;;;;31.48;15.20;;;27.30;99.90;;;;;;4877847;29;20080;-75
2022/07/03 05:42:16;;;;;;;33.20;16.90;;;27.30;99.90;;;;;;4895206;29;20409;-75
2022/07/03 05:44:43;;;;;;;33.95;16.58;;;27.40;99.90;;;;;;4894764;29;20437;-75
2022/07/03 05:47:12;;;;;;;28.70;16.98;;;27.50;99.90;;;;;;4894877;29;20080;-75
2022/07/03 05:49:39;;;;;;;34.67;16.27;;;27.60;99.90;;;;;;4877891;29;20052;-75
2022/07/03 05:52:07;;;;;;;32.42;16.95;;;27.80;99.90;;;;;;4877830;29;20088;-75
2022/07/03 05:54:34;;;;;;;33.47;18.27;;;27.80;99.90;;;;;;4877799;29;20060;-75
2022/07/03 05:57:02;;;;;;;29.48;16.75;;;27.70;99.90;;;;;;4877712;29;20481;-75
2022/07/03 05:59:29;;;;;;;27.90;16.73;;;27.70;99.90;;;;;;4877618;29;20147;-75
2022/07/03 06:01:57;;;;;;;31.92;17.30;;;27.90;99.90;;;;;;4894708;29;20437;-75
2022/07/03 06:04:25;;;;;;;32.30;18.40;;;28.00;99.90;;;;;;4862279;29;20159;-75
2022/07/03 06:06:54;;;;;;;32.65;17.33;;;28.10;99.90;;;;;;4894267;29;20407;-75
2022/07/03 06:09:21;;;;;;;28.95;17.50;;;28.20;99.90;;;;;;4877597;29;20092;-75
2022/07/03 06:11:49;;;;;;;33.92;16.60;;;28.30;99.90;;;;;;4896601;29;20064;-76
2022/07/03 06:14:16;;;;;;;30.38;17.98;;;28.20;99.90;;;;;;4898104;29;20422;-76
2022/07/03 06:16:44;;;;;;;29.67;17.15;;;28.20;99.90;;;;;;4880592;29;20083;-75
2022/07/03 06:19:11;;;;;;;38.75;17.95;;;28.30;99.90;;;;;;4897507;29;20060;-75
2022/07/03 06:21:40;;;;;;;36.03;17.52;;;28.30;99.90;;;;;;4881403;29;20059;-75
2022/07/03 06:24:07;;;;;;;33.65;18.98;;;28.40;99.90;;;;;;4881334;29;20167;-75
2022/07/03 06:26:35;;;;;;;39.08;17.85;;;28.60;99.90;;;;;;4879239;29;20058;-75
2022/07/03 06:29:02;;;;;;;45.55;18.13;;;28.60;99.90;;;;;;4900315;29;20084;-75
2022/07/03 06:31:30;;;;;;;38.72;19.27;;;28.70;99.90;;;;;;4912014;29;20076;-75
2022/07/03 06:33:57;;;;;;;42.20;19.35;;;28.70;99.90;;;;;;4898288;29;20104;-75
2022/07/03 06:36:24;;;;;;;41.45;21.27;;;28.70;99.90;;;;;;4880972;29;20048;-75
2022/07/03 06:38:53;;;;;;;34.83;19.10;;;28.90;99.90;;;;;;4880794;29;20521;-75
2022/07/03 06:41:20;;;;;;;33.20;19.45;;;29.30;99.90;;;;;;4880761;29;20060;-75
2022/07/03 06:43:48;;;;;;;36.60;18.95;;;29.50;99.90;;;;;;4897988;29;20104;-75
2022/07/03 06:46:15;;;;;;;40.78;19.85;;;30.00;99.90;;;;;;4897999;29;20056;-75
2022/07/03 06:48:42;;;;;;;34.08;19.55;;;30.50;98.10;;;;;;4897923;29;20583;-76
2022/07/03 06:51:09;;;;;;;34.90;18.45;;;31.00;95.20;;;;;;4880757;29;20099;-76
2022/07/03 06:53:37;;;;;;;29.05;18.23;;;31.40;92.30;;;;;;4880785;29;20527;-75
2022/07/03 06:56:06;;;;;;;26.92;18.05;;;31.50;91.80;;;;;;4880858;29;20049;-75
2022/07/03 06:58:33;;;;;;;24.67;17.38;;;31.70;91.10;;;;;;4894094;29;20055;-76
2022/07/03 07:01:01;;;;;;;31.63;18.90;;;32.00;92.40;;;;;;4886466;29;20485;-77
2022/07/03 07:03:28;;;;;;;34.55;19.55;;;32.40;91.10;;;;;;4873963;29;20107;-76
2022/07/03 07:05:55;;;;;;;34.40;18.15;;;32.70;91.00;;;;;;4895141;29;20056;-75
2022/07/03 07:08:22;;;;;;;33.97;18.85;;;32.70;85.80;;;;;;4877238;29;20104;-76
2022/07/03 07:10:50;;;;;;;37.25;19.77;;;32.80;82.60;;;;;;4891908;29;20076;-75
2022/07/03 07:13:18;;;;;;;33.65;19.10;;;32.70;81.70;;;;;;4893076;29;20446;-76
2022/07/03 07:15:46;;;;;;;39.42;18.65;;;32.70;81.00;;;;;;4892587;29;20049;-75
2022/07/03 07:18:13;;;;;;;30.90;18.60;;;32.60;84.10;;;;;;4891375;29;20052;-76
2022/07/03 07:20:40;;;;;;;39.53;19.98;;;32.60;83.10;;;;;;4892460;29;20514;-76
2022/07/03 07:23:07;;;;;;;37.38;18.40;;;32.40;82.10;;;;;;4892539;29;20371;-76
2022/07/03 07:25:35;;;;;;;34.25;19.80;;;32.40;82.70;;;;;;4875918;29;20052;-76
2022/07/03 07:28:02;;;;;;;31.60;19.15;;;32.40;82.60;;;;;;4891420;29;20055;-75
2022/07/03 07:30:31;;;;;;;37.50;19.50;;;32.50;82.10;;;;;;4860413;29;20044;-76
2022/07/03 07:32:58;;;;;;;38.97;20.08;;;32.50;82.30;;;;;;4894173;29;20091;-76
2022/07/03 07:35:25;;;;;;;39.55;21.52;;;32.40;83.00;;;;;;4890913;29;20076;-74
2022/07/03 07:37:53;;;;;;;33.55;19.15;;;32.20;84.10;;;;;;4892587;29;20044;-74
2022/07/03 07:40:20;;;;;;;30.40;16.65;;;32.40;88.00;;;;;;4894861;29;20710;-74
2022/07/03 07:42:47;;;;;;;33.60;19.42;;;32.90;85.40;;;;;;4876885;29;20061;-75
2022/07/03 07:45:14;;;;;;;42.05;18.88;;;33.30;84.30;;;;;;4875078;29;20080;-74
2022/07/03 07:47:43;;;;;;;36.50;20.70;;;33.30;82.90;;;;;;4892215;29;20452;-73
2022/07/03 07:50:11;;;;;;;32.13;19.52;;;33.50;80.90;;;;;;4891836;29;20136;-76
2022/07/03 07:52:38;;;;;;;29.45;18.63;;;33.70;80.80;;;;;;4893261;29;20049;-73
2022/07/03 07:55:07;;;;;;;37.35;18.10;;;33.80;83.20;;;;;;4893323;29;20088;-74
2022/07/03 07:57:36;;;;;;;17.98;14.00;;;34.30;79.50;;;;;;4894856;29;20504;-74
2022/07/03 08:00:09;;;;;;;20.10;13.88;;;35.30;73.90;;;;;;4894190;29;20053;-74
2022/07/03 08:05:38;;;;;;;17.80;14.90;;;35.30;71.00;;;;;;4868516;29;20049;-74
2022/07/03 08:08:07;;;;;;;19.48;14.45;;;35.60;71.30;;;;;;4892327;29;20541;-73
2022/07/03 08:10:36;;;;;;;18.65;16.42;;;36.20;69.20;;;;;;4894062;29;20056;-74
2022/07/03 08:13:04;;;;;;;19.00;15.52;;;36.40;70.10;;;;;;4893459;29;20053;-73
2022/07/03 08:15:31;;;;;;;17.75;15.38;;;36.20;70.80;;;;;;4882309;29;20080;-74
2022/07/03 08:17:58;;;;;;;14.32;12.95;;;36.20;72.60;;;;;;4901562;29;20053;-75
2022/07/03 08:20:28;;;;;;;15.63;12.68;;;36.60;70.20;;;;;;4900199;29;20060;-74
2022/07/03 08:22:55;;;;;;;14.65;11.27;;;36.90;68.40;;;;;;4900897;29;20066;-74
2022/07/03 08:25:22;;;;;;;15.80;12.70;;;37.30;70.00;;;;;;4899790;29;20059;-75
2022/07/03 08:27:50;;;;;;;14.18;12.63;;;37.40;69.20;;;;;;4875594;29;20048;-75
2022/07/03 08:30:18;;;;;;;13.43;11.75;;;37.40;68.80;;;;;;4896763;29;20043;-74
2022/07/03 08:32:45;;;;;;;11.95;10.23;;;37.40;69.30;;;;;;4873334;29;20501;-74
2022/07/03 08:35:13;;;;;;;12.90;10.73;;;37.50;67.30;;;;;;4884530;29;20053;-75
2022/07/03 08:37:42;;;;;;;12.13;10.68;;;37.40;67.70;;;;;;4876252;29;20506;-74
2022/07/03 08:40:11;;;;;;;14.52;11.30;;;37.20;69.80;;;;;;4890424;29;20131;-75
2022/07/03 08:42:39;;;;;;;13.40;12.18;;;36.90;71.50;;;;;;4892082;29;20147;-75
2022/07/03 08:45:09;;;;;;;13.98;12.05;;;36.60;71.70;;;;;;4893359;29;20052;-74
2022/07/03 08:47:39;;;;;;;14.65;13.15;;;36.50;71.20;;;;;;4876034;29;20096;-74
2022/07/03 08:50:07;;;;;;;15.27;12.90;;;36.30;70.80;;;;;;4869008;29;20537;-76
2022/07/03 08:52:37;;;;;;;19.20;13.07;;;36.00;71.20;;;;;;4890969;29;20068;-76
2022/07/03 08:55:11;;;;;;;13.38;12.27;;;35.80;72.10;;;;;;4893329;29;20058;-76
2022/07/03 08:57:40;;;;;;;12.57;11.30;;;36.00;71.90;;;;;;4892593;29;20045;-76
2022/07/03 09:00:11;;;;;;;15.35;11.65;;;36.30;71.10;;;;;;4891611;29;20057;-75
2022/07/03 09:02:40;;;;;;;17.38;12.50;;;36.70;71.00;;;;;;4892918;29;20056;-76
2022/07/03 09:05:09;;;;;;;15.85;12.50;;;36.90;71.80;;;;;;4876496;29;20084;-75
2022/07/03 09:07:39;;;;;;;13.55;12.23;;;36.70;69.50;;;;;;4893231;29;20064;-75
2022/07/03 09:10:10;;;;;;;14.82;13.38;;;36.20;70.80;;;;;;4891071;29;20063;-74
2022/07/03 09:12:43;;;;;;;13.68;12.30;;;35.70;71.60;;;;;;4892610;29;20632;-75
2022/07/03 09:15:17;;;;;;;15.45;13.38;;;35.50;74.00;;;;;;4893203;29;20094;-75
2022/07/03 09:18:01;;;;;;;16.15;12.80;;;35.50;73.30;;;;;;4892569;29;20049;-74
2022/07/03 09:20:31;;;;;;;13.10;11.80;;;35.90;72.80;;;;;;4877780;29;20521;-74
2022/07/03 09:23:16;;;;;;;11.65;10.65;;;36.40;72.50;;;;;;4866325;29;20059;-74
2022/07/03 09:25:56;;;;;;;11.63;9.77;;;36.90;71.00;;;;;;4871098;29;20052;-75
2022/07/03 09:28:44;;;;;;;10.65;9.07;;;37.40;68.20;;;;;;4891652;29;20052;-75
2022/07/03 09:31:12;;;;;;;9.75;8.75;;;38.20;65.60;;;;;;4870389;29;20060;-73
2022/07/03 09:33:58;;;;;;;9.82;9.02;;;38.80;65.30;;;;;;4890262;29;20076;-75
2022/07/03 09:36:43;;;;;;;9.38;8.43;;;39.40;61.30;;;;;;4874999;29;20100;-75
2022/07/03 09:39:17;;;;;;;9.20;8.35;;;40.00;59.90;;;;;;4892207;29;20421;-73
2022/07/03 09:41:57;;;;;;;9.30;8.20;;;40.50;57.50;;;;;;4892462;29;20056;-74
2022/07/03 09:44:37;;;;;;;10.50;8.65;;;40.90;56.20;;;;;;4890466;29;20060;-75
2022/07/03 09:47:12;;;;;;;8.93;7.80;;;40.80;56.50;;;;;;4890850;29;20052;-74
2022/07/03 09:49:52;;;;;;;9.00;8.05;;;41.20;56.00;;;;;;4876053;29;20104;-76
2022/07/03 09:52:34;;;;;;;10.73;8.05;;;41.70;54.50;;;;;;4889034;29;20052;-75
2022/07/03 09:55:03;;;;;;;9.90;8.43;;;41.90;52.70;;;;;;4874568;29;20618;-75
2022/07/03 09:57:32;;;;;;;10.60;7.68;;;41.80;52.50;;;;;;4885990;29;20080;-75
2022/07/03 10:00:17;;;;;;;8.30;7.63;;;42.00;52.30;;;;;;4892400;29;20143;-74
2022/07/03 10:02:56;;;;;;;8.38;7.25;;;42.10;52.60;;;;;;4872319;29;20059;-76
2022/07/03 10:05:30;;;;;;;7.50;6.90;;;41.90;51.70;;;;;;4879816;29;20049;-76
2022/07/03 10:07:59;;;;;;;9.27;7.85;;;41.60;52.50;;;;;;4887916;29;20056;-76
2022/07/03 10:10:28;;;;;;;11.20;7.78;;;41.00;53.90;;;;;;4891278;29;20060;-74
2022/07/03 10:12:58;;;;;;;7.90;7.28;;;40.10;54.60;;;;;;4873122;29;20056;-74
2022/07/03 10:15:27;;;;;;;9.43;7.45;;;39.40;55.50;;;;;;4895542;29;20085;-74
2022/07/03 10:17:57;;;;;;;12.82;7.80;;;39.00;56.70;;;;;;4889707;29;20403;-74
2022/07/03 10:20:48;;;;;;;8.25;7.43;;;38.60;58.10;;;;;;4892652;29;20059;-75
2022/07/03 10:23:17;;;;;;;9.60;8.35;;;38.20;58.80;;;;;;4872829;29;20064;-74
2022/07/03 10:25:55;;;;;;;12.27;7.10;;;37.90;59.40;;;;;;4874247;29;20060;-75
2022/07/03 10:28:24;;;;;;;7.72;7.13;;;37.90;60.50;;;;;;4889544;29;20080;-74
2022/07/03 10:30:56;;;;;;;10.88;6.95;;;38.00;59.60;;;;;;4891262;29;20062;-75
2022/07/03 10:33:27;;;;;;;7.45;6.85;;;37.70;60.00;;;;;;4889884;29;20048;-72
2022/07/03 10:35:55;;;;;;;6.50;6.00;;;37.90;59.60;;;;;;4875035;29;20063;-74
2022/07/03 10:38:40;;;;;;;6.90;6.22;;;38.50;58.60;;;;;;4890372;29;20064;-75
2022/07/03 10:46:45;;;;;;;10.02;6.07;;;38.40;58.20;;;;;;4889715;29;20071;-75
2022/07/03 10:49:13;;;;;;;10.15;6.15;;;38.10;58.70;;;;;;4907336;29;20509;-75
2022/07/03 10:51:56;;;;;;;7.60;6.10;;;37.70;58.80;;;;;;4908273;29;20613;-74
2022/07/03 10:54:25;;;;;;;6.30;5.80;;;37.50;59.10;;;;;;4890504;29;20061;-74
2022/07/03 10:57:19;;;;;;;7.28;6.43;;;37.30;58.80;;;;;;4871845;29;20059;-75
2022/07/03 11:00:17;;;;;;;8.48;6.38;;;36.90;59.70;;;;;;4896274;29;20505;-75
2022/07/03 11:02:46;;;;;;;7.10;6.40;;;36.70;61.30;;;;;;4892636;29;20112;-74
2022/07/03 11:05:19;;;;;;;12.02;6.80;;;37.20;61.20;;;;;;4896349;29;20083;-75
2022/07/03 11:08:17;;;;;;;10.10;6.20;;;37.60;61.10;;;;;;4875742;29;20151;-75
2022/07/03 11:11:54;;;;;;;8.80;6.07;;;38.10;59.60;;;;;;4895286;29;20104;-75
2022/07/03 11:13:33;;;;;;;14.80;6.63;;;38.60;58.90;;;;;;4875422;29;20522;-75
2022/07/03 11:16:02;;;;;;;7.05;6.18;;;38.90;57.50;;;;;;4876262;29;20140;-77
2022/07/03 11:18:32;;;;;;;8.48;6.07;;;38.80;57.60;;;;;;4891664;29;20075;-76
2022/07/03 11:21:25;;;;;;;9.52;6.63;;;39.00;58.40;;;;;;4894516;29;20045;-74
2022/07/03 11:24:38;;;;;;;6.80;6.07;;;38.50;57.70;;;;;;4877447;29;20055;-74
2022/07/03 11:27:34;;;;;;;8.70;6.35;;;38.00;58.20;;;;;;4892748;29;20101;-74
2022/07/03 11:30:02;;;;;;;6.70;6.03;;;38.30;59.10;;;;;;4895411;29;20061;-75
2022/07/03 11:32:52;;;;;;;11.93;6.30;;;38.70;58.40;;;;;;4860065;29;20056;-75
2022/07/03 11:35:59;;;;;;;16.80;5.78;;;39.00;57.00;;;;;;4894232;29;20057;-73
2022/07/03 11:38:29;;;;;;;6.40;5.90;;;39.40;56.10;;;;;;4893128;29;20057;-73
2022/07/03 11:41:00;;;;;;;12.18;6.50;;;39.80;55.70;;;;;;4895058;29;20052;-74
2022/07/03 11:43:28;;;;;;;;;;;39.20;55.70;;;;;;4876734;29;20091;-74
2022/07/03 11:45:56;;;;;;;13.40;7.97;;;39.00;55.80;;;;;;4876513;29;19987;-74
2022/07/03 11:48:27;;;;;;;16.50;8.80;;;39.40;55.20;;;;;;4890870;29;20052;-75
2022/07/03 11:51:02;;;;;;;14.60;5.15;;;39.70;54.40;;;;;;4894248;29;20052;-74
2022/07/03 11:53:32;;;;;;;15.00;6.90;;;39.50;54.80;;;;;;4893324;29;20056;-74
2022/07/03 11:56:00;;;;;;;21.38;9.05;;;39.40;55.80;;;;;;4877190;29;20116;-74
2022/07/03 11:58:42;;;;;;;6.05;4.70;;;39.80;54.70;;;;;;4893099;29;20048;-75
2022/07/03 12:01:29;;;;;;;10.35;6.80;;;40.40;55.00;;;;;;4893390;29;20088;-75
2022/07/03 12:04:06;;;;;;;11.52;5.88;;;40.90;54.00;;;;;;4893608;29;20067;-73
2022/07/03 12:06:39;;;;;;;10.93;5.32;;;41.30;53.10;;;;;;4890656;29;20143;-74
2022/07/03 12:09:17;;;;;;;10.88;5.75;;;41.30;52.10;;;;;;4893747;29;20053;-75
2022/07/03 12:12:03;;;;;;;10.48;4.90;;;41.10;51.70;;;;;;4891978;29;20053;-77
2022/07/03 12:14:56;;;;;;;14.65;9.02;;;40.70;52.50;;;;;;4876224;29;20057;-75
2022/07/03 12:17:25;;;;;;;14.27;6.80;;;40.30;52.10;;;;;;4877579;29;20096;-74
2022/07/03 12:19:56;;;;;;;12.73;6.25;;;40.30;52.10;;;;;;4893732;29;20059;-75
2022/07/03 12:22:29;;;;;;;14.35;9.35;;;40.40;51.70;;;;;;4891923;29;20143;-74
2022/07/03 12:25:02;;;;;;;6.35;4.93;;;40.70;52.10;;;;;;4892135;29;20104;-73
2022/07/03 12:27:32;;;;;;;10.68;6.30;;;40.60;50.90;;;;;;4890930;29;20060;-74
2022/07/03 12:30:00;;;;;;;6.90;5.28;;;40.30;51.90;;;;;;4894694;29;21152;-74
2022/07/03 12:32:27;;;;;;;7.38;4.78;;;40.30;52.20;;;;;;4891693;29;20108;-74
2022/07/03 12:34:56;;;;;;;4.47;3.88;;;40.70;51.20;;;;;;4877367;29;20060;-75
2022/07/03 12:37:33;;;;;;;8.85;4.20;;;41.20;50.50;;;;;;4891772;29;20053;-75
2022/07/03 12:40:01;;;;;;;8.05;4.70;;;41.70;50.10;;;;;;4877286;29;20109;-75
2022/07/03 12:42:30;;;;;;;5.35;4.00;;;41.80;49.70;;;;;;4873936;29;20064;-75
2022/07/03 12:44:59;;;;;;;5.88;3.80;;;41.90;49.80;;;;;;4893546;29;20143;-76
2022/07/03 12:47:27;;;;;;;6.80;3.88;;;42.10;49.80;;;;;;4889150;29;20147;-77
2022/07/03 12:50:01;;;;;;;4.20;3.78;;;42.60;48.90;;;;;;4892833;29;20059;-75
2022/07/03 12:52:32;;;;;;;12.07;4.47;;;42.80;48.40;;;;;;4890963;29;20058;-76
2022/07/03 12:55:02;;;;;;;4.03;3.65;;;42.90;47.60;;;;;;4892560;29;20060;-76
2022/07/03 13:00:19;;;;;;;4.30;3.80;;;42.70;47.00;;;;;;4858340;29;20061;-75
2022/07/03 13:02:48;;;;;;;6.50;3.60;;;42.60;47.00;;;;;;4857852;29;20061;-75
2022/07/03 13:05:18;;;;;;;4.65;3.72;;;42.50;47.20;;;;;;4893093;29;20143;-76
2022/07/03 13:07:48;;;;;;;9.68;4.03;;;42.40;47.40;;;;;;4889926;29;20059;-75